Time;durP1;ratioP1;P1;durP2;ratioP2;P2;SDS_P1;SDS_P2;PMS_P1;PMS_P2;Temp;Humidity;BMP_temperature;BMP_pressure;BME280_temperature;BME280_humidity;BME280_pressure;Samples;Min_cycle;Max_cycle;Signal;HPM_P1;HPM_P2
2023/08/10 00:01:06;;;;;;;6.80;4.10;;;;;;;15.49;63.42;99837.23;107240;1257;67627;-38
2023/08/10 00:03:35;;;;;;;5.20;4.00;;;;;;;15.45;63.39;99839.29;107254;1258;71446;-38
2023/08/10 00:06:02;;;;;;;6.70;4.00;;;;;;;15.48;63.45;99834.39;107320;1258;60415;-38
2023/08/10 00:08:30;;;;;;;5.20;3.30;;;;;;;15.51;63.24;99836.01;107252;1258;60424;-38
2023/08/10 00:10:58;;;;;;;7.00;3.80;;;;;;;15.50;63.26;99831.85;107354;1256;72617;-38
2023/08/10 00:13:25;;;;;;;6.00;4.00;;;;;;;15.49;63.37;99834.02;107283;1257;67742;-38
2023/08/10 00:15:53;;;;;;;6.60;4.10;;;;;;;15.48;63.51;99835.10;107262;1258;72433;-38
2023/08/10 00:18:20;;;;;;;5.50;3.80;;;;;;;15.46;63.32;99838.91;107241;1255;60326;-38
2023/08/10 00:20:48;;;;;;;10.60;4.10;;;;;;;15.45;63.42;99843.98;107244;1256;60419;-38
2023/08/10 00:23:15;;;;;;;5.50;3.60;;;;;;;15.44;63.34;99846.79;107284;1257;72870;-38
2023/08/10 00:25:43;;;;;;;5.60;3.80;;;;;;;15.42;63.43;99844.27;107297;1257;66308;-38
2023/08/10 00:28:11;;;;;;;5.30;3.70;;;;;;;15.41;64.00;99846.29;107271;1258;72696;-38
2023/08/10 00:30:39;;;;;;;6.30;3.80;;;;;;;15.41;64.81;99843.77;107241;1257;61738;-38
2023/08/10 00:33:07;;;;;;;4.40;3.40;;;;;;;15.44;65.38;99840.69;107194;1255;60267;-38
2023/08/10 00:35:39;;;;;;;5.60;3.40;;;;;;;15.50;65.80;99844.49;107342;1258;73170;-38
2023/08/10 00:38:06;;;;;;;4.90;3.50;;;;;;;15.52;66.01;99844.14;107269;1260;66626;-37
2023/08/10 00:40:34;;;;;;;6.60;3.90;;;;;;;15.54;66.03;99846.18;107275;1256;71426;-37
2023/08/10 00:43:02;;;;;;;6.70;3.70;;;;;;;15.56;65.80;99847.36;107144;1257;60362;-38
2023/08/10 00:45:30;;;;;;;5.10;3.20;;;;;;;15.58;65.47;99842.39;107295;1256;60291;-38
2023/08/10 00:47:58;;;;;;;4.60;3.40;;;;;;;15.60;65.14;99845.35;107188;1261;73888;-38
2023/08/10 00:50:27;;;;;;;7.00;4.00;;;;;;;15.60;65.15;99842.77;107367;1257;67774;-38
2023/08/10 00:52:54;;;;;;;6.20;3.40;;;;;;;15.58;65.18;99844.57;107179;1260;72651;-38
2023/08/10 00:55:24;;;;;;;5.40;3.80;;;;;;;15.57;65.09;99847.61;107182;1262;60409;-38
2023/08/10 00:57:52;;;;;;;6.20;3.60;;;;;;;15.60;65.05;99847.23;107248;1257;60297;-38
2023/08/10 01:00:19;;;;;;;4.70;3.70;;;;;;;15.63;64.89;99850.23;107176;1257;73944;-38
2023/08/10 01:02:47;;;;;;;6.70;3.60;;;;;;;15.60;64.87;99853.39;107281;1260;68177;-38
2023/08/10 01:05:15;;;;;;;3.90;3.20;;;;;;;15.59;64.77;99859.48;107200;1260;72669;-38
2023/08/10 01:08:04;;;;;;;5.50;3.50;;;;;;;15.59;64.83;99861.58;107274;1256;60438;-38
2023/08/10 01:10:32;;;;;;;4.80;3.40;;;;;;;15.58;64.86;99865.19;107272;1257;60277;-38
2023/08/10 01:13:06;;;;;;;4.80;3.20;;;;;;;15.58;65.05;99866.83;107238;1257;73961;-38
2023/08/10 01:15:54;;;;;;;5.10;3.20;;;;;;;15.58;65.21;99868.86;107282;1258;67747;-38
2023/08/10 01:18:26;;;;;;;4.50;3.30;;;;;;;15.55;65.16;99870.94;107303;1257;71356;-38
2023/08/10 01:20:54;;;;;;;5.20;3.60;;;;;;;15.51;65.03;99869.80;107228;1257;61673;-38
2023/08/10 01:23:29;;;;;;;4.40;3.10;;;;;;;15.53;65.00;99869.67;107271;1260;59282;-38
2023/08/10 01:25:56;;;;;;;4.00;3.10;;;;;;;15.56;65.00;99870.86;107194;1256;72975;-38
2023/08/10 01:28:25;;;;;;;5.30;2.90;;;;;;;15.57;65.09;99871.41;107165;1256;67767;-38
2023/08/10 01:30:54;;;;;;;5.30;3.30;;;;;;;15.56;65.00;99872.65;107257;1257;72717;-38
2023/08/10 01:33:22;;;;;;;6.40;3.10;;;;;;;15.53;64.91;99872.27;107310;1260;60124;-38
2023/08/10 01:35:49;;;;;;;4.00;3.30;;;;;;;15.50;64.81;99871.80;107196;1262;60315;-38
2023/08/10 01:38:17;;;;;;;4.80;3.20;;;;;;;15.47;64.72;99871.86;107244;1257;72536;-38
2023/08/10 01:40:45;;;;;;;4.60;3.30;;;;;;;15.44;64.73;99874.80;107251;1257;67572;-39
2023/08/10 01:43:13;;;;;;;4.40;3.30;;;;;;;15.41;64.61;99876.03;107309;1257;72729;-38
2023/08/10 01:45:42;;;;;;;3.70;2.90;;;;;;;15.37;64.46;99874.91;107300;1256;60237;-39
2023/08/10 01:48:20;;;;;;;;;;;;;;;15.30;64.32;99877.73;107289;1260;60366;-39
2023/08/10 01:50:49;;;;;;;4.90;3.40;;;;;;;15.23;64.35;99878.16;107328;1256;72592;-39
2023/08/10 01:53:18;;;;;;;4.40;3.30;;;;;;;15.18;64.42;99883.13;107362;1257;66797;-39
2023/08/10 01:55:46;;;;;;;4.50;3.30;;;;;;;15.19;64.56;99883.36;107242;1257;71422;-39
2023/08/10 01:58:13;;;;;;;5.80;3.10;;;;;;;15.21;64.37;99885.78;107050;1257;60215;-39
2023/08/10 02:00:41;;;;;;;4.90;2.90;;;;;;;15.22;64.43;99884.86;107259;1256;60322;-39
2023/08/10 02:03:09;;;;;;;3.90;2.70;;;;;;;15.21;64.56;99879.15;107251;1257;73956;-39
2023/08/10 02:05:36;;;;;;;3.90;3.30;;;;;;;15.21;64.84;99882.90;107186;1255;67860;-39
2023/08/10 02:08:06;;;;;;;6.30;2.80;;;;;;;15.21;65.17;99883.91;107240;1257;71380;-39
2023/08/10 02:10:34;;;;;;;4.50;2.70;;;;;;;15.22;65.25;99882.43;107191;1257;60325;-39
2023/08/10 02:13:02;;;;;;;5.20;3.10;;;;;;;15.21;65.64;99882.36;107241;1257;60211;-38
2023/08/10 02:15:29;;;;;;;3.90;3.00;;;;;;;15.21;65.75;99882.04;107190;1258;72028;-38
2023/08/10 02:17:57;;;;;;;4.70;2.80;;;;;;;15.25;65.25;99878.55;107274;1257;67697;-38
2023/08/10 02:20:25;;;;;;;3.70;2.70;;;;;;;15.31;65.17;99878.77;107269;1257;72635;-38
2023/08/10 02:22:53;;;;;;;5.30;3.40;;;;;;;15.34;65.36;99877.77;107077;1258;141678;-40
2023/08/10 02:27:43;;;;;;;8.70;3.20;;;;;;;15.36;65.36;99881.85;104232;1290;599681;-37
2023/08/10 02:30:11;;;;;;;6.50;3.30;;;;;;;15.35;65.33;99884.79;106644;1264;59202;-38
2023/08/10 02:32:38;;;;;;;5.10;3.00;;;;;;;15.32;65.46;99886.11;107255;1253;59198;-38
2023/08/10 02:35:08;;;;;;;4.30;2.90;;;;;;;15.29;65.69;99888.75;107394;1253;70945;-39
2023/08/10 02:37:37;;;;;;;6.30;2.50;;;;;;;15.26;65.71;99890.04;107388;1253;67601;-38
2023/08/10 02:40:07;;;;;;;6.40;2.60;;;;;;;15.27;65.66;99887.55;107326;1256;72292;-38
2023/08/10 02:42:34;;;;;;;;;;;;;;;15.32;65.48;99896.65;107557;1253;60188;-38
2023/08/10 02:45:03;;;;;;;3.80;2.70;;;;;;;15.32;65.20;99895.71;107730;1251;59109;-38
2023/08/10 02:47:31;;;;;;;4.20;2.70;;;;;;;15.28;65.07;99900.77;107727;1251;71403;-38
2023/08/10 02:49:58;;;;;;;4.80;2.80;;;;;;;15.28;65.02;99899.83;107547;1251;67566;-38
2023/08/10 02:52:27;;;;;;;4.00;2.50;;;;;;;15.29;64.90;99899.27;107649;1253;72686;-38
2023/08/10 02:54:54;;;;;;;3.40;2.60;;;;;;;15.28;65.06;99897.40;107503;1251;60058;-38
2023/08/10 02:57:22;;;;;;;4.20;3.30;;;;;;;15.27;65.29;99904.02;107577;1251;60115;-38
2023/08/10 02:59:50;;;;;;;4.90;2.90;;;;;;;15.26;65.50;99903.06;107629;1251;71801;-38
2023/08/10 03:02:18;;;;;;;4.10;2.70;;;;;;;15.24;65.51;99904.48;107555;1257;67590;-38
2023/08/10 03:04:46;;;;;;;4.00;2.50;;;;;;;15.28;65.62;99905.52;107427;1251;71488;-38
2023/08/10 03:07:14;;;;;;;4.00;2.60;;;;;;;15.33;65.62;99904.46;107641;1252;60369;-38
2023/08/10 03:09:42;;;;;;;4.20;2.90;;;;;;;15.35;65.99;99904.64;107560;1251;59246;-38
2023/08/10 03:12:12;;;;;;;3.00;2.40;;;;;;;15.37;66.15;99906.13;107548;1251;71562;-39
2023/08/10 03:14:40;;;;;;;4.80;2.80;;;;;;;15.37;65.96;99905.13;107563;1251;66305;-38
2023/08/10 03:17:07;;;;;;;4.10;2.60;;;;;;;15.39;65.97;99909.27;107682;1251;72739;-38
2023/08/10 03:19:35;;;;;;;4.80;2.70;;;;;;;15.41;66.01;99909.52;107548;1251;59119;-38
2023/08/10 03:22:03;;;;;;;3.80;2.70;;;;;;;15.42;66.36;99912.27;107483;1251;59228;-38
2023/08/10 03:24:31;;;;;;;3.50;2.30;;;;;;;15.44;66.64;99914.38;107660;1252;71860;-38
2023/08/10 03:26:59;;;;;;;5.20;2.60;;;;;;;15.49;66.81;99915.52;107680;1252;66304;-38
2023/08/10 03:29:27;;;;;;;5.50;2.90;;;;;;;15.56;66.88;99916.94;107657;1253;72859;-38
2023/08/10 03:31:54;;;;;;;4.30;2.60;;;;;;;15.58;66.95;99918.98;107466;1251;59595;-38
2023/08/10 03:34:22;;;;;;;4.70;2.70;;;;;;;15.59;66.99;99921.26;107489;1251;59587;-38
2023/08/10 03:36:51;;;;;;;3.60;2.70;;;;;;;15.61;66.53;99920.80;107551;1251;71758;-38
2023/08/10 03:39:18;;;;;;;8.20;3.10;;;;;;;15.65;66.30;99916.52;107454;1251;66447;-38
2023/08/10 03:41:46;;;;;;;4.00;2.50;;;;;;;15.67;66.05;99925.38;107590;1256;72744;-38
2023/08/10 03:44:13;;;;;;;3.60;2.90;;;;;;;15.68;65.50;99929.83;107638;1253;59694;-39
2023/08/10 03:46:41;;;;;;;5.20;2.40;;;;;;;15.66;64.71;99931.61;107547;1258;59128;-39
2023/08/10 03:49:09;;;;;;;5.80;2.70;;;;;;;15.66;64.19;99930.98;107536;1251;73070;-39
2023/08/10 03:51:37;;;;;;;6.00;3.50;;;;;;;15.64;64.09;99928.23;107543;1251;66633;-39
2023/08/10 03:54:04;;;;;;;4.30;3.50;;;;;;;15.64;64.30;99930.42;107593;1253;71384;-38
2023/08/10 03:56:32;;;;;;;6.40;3.80;;;;;;;15.69;64.35;99931.17;107561;1253;60886;-38
2023/08/10 03:59:00;;;;;;;11.40;4.20;;;;;;;15.78;64.51;99928.48;107609;1251;59299;-39
2023/08/10 04:01:27;;;;;;;6.10;4.20;;;;;;;15.85;64.72;99924.02;107427;1251;72060;-38
2023/08/10 04:03:55;;;;;;;9.70;4.60;;;;;;;15.89;65.00;99926.08;107610;1257;67582;-39
2023/08/10 04:06:23;;;;;;;8.00;4.60;;;;;;;15.94;65.23;99925.55;107620;1251;72699;-38
2023/08/10 04:08:50;;;;;;;6.50;4.60;;;;;;;15.99;65.52;99927.38;107571;1251;59756;-38
2023/08/10 04:11:18;;;;;;;6.40;4.60;;;;;;;16.04;65.60;99929.91;107578;1253;59476;-39
2023/08/10 04:13:46;;;;;;;6.10;4.60;;;;;;;16.09;65.92;99923.21;107599;1251;72063;-38
2023/08/10 04:16:14;;;;;;;7.30;4.50;;;;;;;16.21;65.83;99926.17;107537;1257;66629;-39
2023/08/10 04:18:42;;;;;;;7.40;5.20;;;;;;;16.35;65.49;99922.72;107535;1253;72771;-39
2023/08/10 04:21:12;;;;;;;6.60;4.70;;;;;;;16.44;65.31;99921.89;107544;1257;59235;-39
2023/08/10 04:23:40;;;;;;;7.20;4.80;;;;;;;16.53;65.17;99924.12;107561;1253;60331;-39
2023/08/10 04:26:09;;;;;;;7.30;4.70;;;;;;;16.63;64.73;99924.83;107561;1253;73111;-39
2023/08/10 04:28:36;;;;;;;6.90;4.70;;;;;;;16.73;64.56;99924.23;107599;1251;67903;-39
2023/08/10 04:31:04;;;;;;;10.20;4.90;;;;;;;16.84;64.42;99920.50;107530;1252;72672;-39
2023/08/10 04:33:31;;;;;;;9.10;4.70;;;;;;;16.93;64.45;99922.41;107637;1253;59628;-39
2023/08/10 04:35:59;;;;;;;6.90;4.80;;;;;;;17.03;64.28;99922.73;107632;1256;60011;-39
2023/08/10 04:38:27;;;;;;;7.70;4.40;;;;;;;17.13;64.55;99927.91;107653;1253;71847;-39
2023/08/10 04:40:54;;;;;;;8.70;4.20;;;;;;;17.27;64.48;99928.01;107573;1253;68023;-39
2023/08/10 04:43:22;;;;;;;6.00;4.40;;;;;;;17.42;64.10;99929.20;107641;1253;71039;-39
2023/08/10 04:45:50;;;;;;;7.80;4.90;;;;;;;17.53;63.89;99928.64;107603;1253;60046;-39
2023/08/10 04:48:18;;;;;;;7.20;4.60;;;;;;;17.62;63.65;99931.49;107625;1253;59549;-39
2023/08/10 04:50:46;;;;;;;7.10;4.90;;;;;;;17.71;63.50;99935.95;107597;1253;73086;-39
2023/08/10 04:53:13;;;;;;;7.20;4.40;;;;;;;17.80;62.93;99938.05;107557;1253;66289;-39
2023/08/10 04:55:41;;;;;;;7.10;4.60;;;;;;;17.89;62.75;99939.06;107602;1257;72680;-39
2023/08/10 04:58:08;;;;;;;5.90;4.50;;;;;;;17.95;62.74;99938.51;107600;1253;59615;-39
2023/08/10 05:00:37;;;;;;;7.40;4.60;;;;;;;18.01;62.67;99934.89;107580;1253;60132;-39
2023/08/10 05:03:04;;;;;;;6.80;4.40;;;;;;;18.08;62.77;99938.88;107598;1252;71846;-39
2023/08/10 05:05:32;;;;;;;8.00;4.70;;;;;;;18.14;62.80;99942.46;107705;1253;67933;-39
2023/08/10 05:08:00;;;;;;;12.70;5.00;;;;;;;18.18;62.42;99942.06;107599;1257;72345;-39
2023/08/10 05:10:28;;;;;;;8.10;4.90;;;;;;;18.25;62.54;99950.20;107656;1253;61711;-39
2023/08/10 05:12:55;;;;;;;7.30;4.30;;;;;;;18.36;62.59;99947.10;107570;1252;59612;-39
2023/08/10 05:15:23;;;;;;;6.50;4.60;;;;;;;18.49;62.39;99950.05;107600;1253;73344;-38
2023/08/10 05:17:51;;;;;;;7.10;4.70;;;;;;;18.58;61.67;99946.81;107627;1253;66871;-38
2023/08/10 05:20:18;;;;;;;9.00;5.00;;;;;;;18.66;61.60;99948.90;107450;1257;72709;-39
2023/08/10 05:22:46;;;;;;;6.50;4.70;;;;;;;18.75;61.59;99948.31;107707;1257;60156;-39
2023/08/10 05:25:14;;;;;;;8.50;5.00;;;;;;;18.84;61.71;99954.00;107622;1256;59600;-38
2023/08/10 05:27:45;;;;;;;7.30;4.60;;;;;;;18.91;61.35;99953.95;107667;1257;72859;-38
2023/08/10 05:30:13;;;;;;;8.20;4.40;;;;;;;18.96;61.28;99951.34;107678;1253;67565;-39
2023/08/10 05:32:43;;;;;;;6.10;4.50;;;;;;;19.01;61.00;99951.38;107608;1257;72666;-38
2023/08/10 05:35:13;;;;;;;6.80;4.40;;;;;;;19.07;61.04;99951.11;107700;1258;60099;-39
2023/08/10 05:37:41;;;;;;;7.30;4.40;;;;;;;19.14;60.54;99951.39;107694;1253;59726;-38
2023/08/10 05:40:10;;;;;;;5.80;4.60;;;;;;;19.20;60.33;99952.29;107631;1251;73150;-38
2023/08/10 05:42:39;;;;;;;5.70;4.30;;;;;;;19.27;60.59;99955.46;107708;1252;68217;-39
2023/08/10 05:45:08;;;;;;;4.40;3.90;;;;;;;19.35;60.49;99954.30;107553;1253;72658;-39
2023/08/10 05:47:36;;;;;;;7.20;4.50;;;;;;;19.43;60.71;99952.91;107708;1253;60058;-39
2023/08/10 05:50:04;;;;;;;6.70;4.10;;;;;;;19.52;60.49;99953.02;107634;1253;59514;-38
2023/08/10 05:52:32;;;;;;;5.80;3.90;;;;;;;19.60;60.17;99951.31;107668;1251;73053;-39
2023/08/10 05:55:00;;;;;;;8.40;4.30;;;;;;;19.68;59.51;99952.19;107605;1252;67580;-39
2023/08/10 05:57:28;;;;;;;6.30;3.60;;;;;;;19.76;59.33;99954.79;107594;1253;71482;-39
2023/08/10 05:59:55;;;;;;;5.30;3.80;;;;;;;19.84;59.03;99953.92;107620;1253;59619;-39
2023/08/10 06:02:23;;;;;;;5.70;3.80;;;;;;;19.91;59.12;99951.83;107670;1252;60039;-39
2023/08/10 06:04:52;;;;;;;5.70;3.80;;;;;;;19.98;58.78;99954.73;107593;1253;73044;-39
2023/08/10 06:07:19;;;;;;;6.50;3.80;;;;;;;20.07;58.53;99954.81;107613;1252;67605;-39
2023/08/10 06:09:47;;;;;;;5.90;3.90;;;;;;;20.16;57.88;99954.64;107648;1253;72694;-39
2023/08/10 06:12:17;;;;;;;5.70;3.60;;;;;;;20.25;57.01;99954.61;107619;1257;60646;-39
2023/08/10 06:14:45;;;;;;;4.80;3.80;;;;;;;20.35;56.59;99953.90;107626;1254;60047;-39
2023/08/10 06:17:13;;;;;;;4.80;3.70;;;;;;;20.46;56.52;99958.42;107585;1253;73530;-38
2023/08/10 06:19:44;;;;;;;5.50;3.50;;;;;;;20.55;55.73;99959.65;107640;1252;67557;-38
2023/08/10 06:22:12;;;;;;;8.20;3.80;;;;;;;20.65;55.33;99955.90;107401;1253;71442;-38
2023/08/10 06:24:40;;;;;;;5.70;3.70;;;;;;;20.75;54.93;99955.23;107592;1253;59648;-39
2023/08/10 06:27:07;;;;;;;8.40;3.90;;;;;;;20.87;55.46;99959.23;107615;1251;59692;-39
2023/08/10 06:29:35;;;;;;;5.60;3.30;;;;;;;20.97;54.59;99954.69;107673;1257;73077;-39
2023/08/10 06:32:05;;;;;;;5.90;3.30;;;;;;;21.08;53.88;99958.79;107624;1253;67618;-38
2023/08/10 06:34:34;;;;;;;4.70;3.50;;;;;;;21.18;52.64;99954.59;107660;1253;72693;-38
2023/08/10 06:37:01;;;;;;;5.00;3.60;;;;;;;21.28;52.37;99957.52;107652;1257;60533;-39
2023/08/10 06:39:29;;;;;;;6.90;3.20;;;;;;;21.38;52.19;99958.93;107638;1252;60575;-39
2023/08/10 06:41:57;;;;;;;6.30;2.70;;;;;;;21.47;52.39;99956.35;107611;1259;71839;-39
2023/08/10 06:44:29;;;;;;;4.60;3.00;;;;;;;21.56;51.35;99955.10;107587;1253;66621;-39
2023/08/10 06:46:56;;;;;;;4.90;2.90;;;;;;;21.67;51.03;99955.22;107661;1254;72699;-39
2023/08/10 06:49:24;;;;;;;4.90;2.60;;;;;;;21.77;50.41;99952.31;107599;1253;60552;-38
2023/08/10 06:51:52;;;;;;;5.60;2.70;;;;;;;21.85;49.80;99950.59;107613;1253;60317;-39
2023/08/10 06:54:20;;;;;;;3.20;2.50;;;;;;;21.93;48.73;99950.23;107580;1258;73852;-39
2023/08/10 06:56:47;;;;;;;4.60;2.50;;;;;;;22.03;47.73;99951.30;107612;1253;67931;-39
2023/08/10 06:59:15;;;;;;;5.70;2.90;;;;;;;22.13;47.70;99953.81;107579;1253;72736;-39
2023/08/10 07:01:46;;;;;;;3.50;2.30;;;;;;;22.21;47.37;99954.93;107698;1252;60379;-39
2023/08/10 07:04:14;;;;;;;7.10;2.50;;;;;;;22.31;47.02;99951.34;107586;1253;60305;-39
2023/08/10 07:06:41;;;;;;;4.30;2.40;;;;;;;22.41;47.52;99955.08;107634;1257;72659;-39
2023/08/10 07:09:09;;;;;;;4.00;2.60;;;;;;;22.50;46.73;99953.48;107552;1253;67522;-39
2023/08/10 07:11:37;;;;;;;4.90;2.90;;;;;;;22.57;46.84;99958.08;107544;1252;72879;-38
2023/08/10 07:14:04;;;;;;;21.10;3.70;;;;;;;22.68;47.09;99961.04;107581;1253;60452;-38
2023/08/10 07:16:32;;;;;;;6.40;2.60;;;;;;;22.78;47.10;99956.71;107613;1254;60393;-39
2023/08/10 07:19:00;;;;;;;4.00;2.60;;;;;;;22.90;46.40;99957.73;107664;1252;73967;-39
2023/08/10 07:21:27;;;;;;;6.60;2.70;;;;;;;23.04;46.11;99955.05;107591;1253;67576;-39
2023/08/10 07:23:56;;;;;;;4.30;2.50;;;;;;;23.17;46.16;99951.77;107657;1252;72663;-39
2023/08/10 07:26:23;;;;;;;3.60;2.50;;;;;;;23.32;46.25;99955.27;107569;1252;60463;-39
2023/08/10 07:28:52;;;;;;;8.60;3.10;;;;;;;23.47;46.09;99952.09;107606;1253;60303;-39
2023/08/10 07:31:20;;;;;;;9.50;4.50;;;;;;;23.61;45.59;99952.00;107628;1253;72436;-39
2023/08/10 07:33:48;;;;;;;9.10;3.40;;;;;;;23.74;44.69;99942.17;107639;1253;67560;-39
2023/08/10 07:36:15;;;;;;;7.60;3.40;;;;;;;23.84;44.66;99939.69;107612;1253;71417;-39
2023/08/10 07:38:43;;;;;;;4.50;3.20;;;;;;;23.97;44.23;99940.39;107583;1254;60638;-39
2023/08/10 07:41:10;;;;;;;5.40;2.80;;;;;;;24.08;43.55;99941.49;107590;1253;60446;-39
2023/08/10 07:43:39;;;;;;;5.60;2.90;;;;;;;24.17;43.11;99942.95;107621;1251;73879;-39
2023/08/10 07:46:06;;;;;;;9.50;3.40;;;;;;;24.26;42.97;99942.47;107654;1253;68010;-39
2023/08/10 07:48:34;;;;;;;5.70;3.00;;;;;;;24.35;42.64;99940.73;107611;1253;72642;-39
2023/08/10 07:51:03;;;;;;;7.30;2.80;;;;;;;24.43;42.41;99940.96;107640;1252;60303;-39
2023/08/10 07:53:32;;;;;;;6.70;2.80;;;;;;;24.51;42.10;99938.84;107638;1251;60291;-39
2023/08/10 07:56:00;;;;;;;5.00;2.50;;;;;;;24.58;42.09;99938.46;107667;1253;73969;-39
2023/08/10 07:58:27;;;;;;;5.10;2.40;;;;;;;24.66;41.69;99939.20;107659;1253;67559;-39
2023/08/10 08:00:55;;;;;;;6.00;3.20;;;;;;;24.72;40.83;99938.00;107639;1254;71060;-39
2023/08/10 08:03:22;;;;;;;2.90;2.20;;;;;;;24.76;40.38;99938.12;107616;1253;60430;-39
2023/08/10 08:05:50;;;;;;;7.10;5.60;;;;;;;24.78;39.65;99936.89;107639;1253;60684;-39
2023/08/10 08:08:18;;;;;;;3.70;2.50;;;;;;;24.77;39.73;99936.97;107652;1253;73888;-39
2023/08/10 08:10:46;;;;;;;4.80;2.40;;;;;;;24.78;39.18;99932.73;107641;1253;66415;-39
2023/08/10 08:13:14;;;;;;;79.80;8.30;;;;;;;24.79;39.47;99931.50;107632;1257;72666;-39
2023/08/10 08:15:43;;;;;;;6.30;2.80;;;;;;;24.81;39.34;99929.09;107642;1253;60422;-39
2023/08/10 08:18:46;;;;;;;6.80;2.20;;;;;;;24.83;38.94;99921.58;107576;1251;60577;-39
2023/08/10 08:21:16;;;;;;;5.10;2.40;;;;;;;24.86;39.96;99923.23;107582;1253;73885;-39
2023/08/10 08:23:43;;;;;;;;;;;;;;;24.86;39.67;99927.51;107618;1256;67573;-39
2023/08/10 08:26:12;;;;;;;7.50;2.70;;;;;;;24.84;39.10;99925.44;107693;1255;73015;-39
2023/08/10 08:28:41;;;;;;;2.90;2.10;;;;;;;24.80;38.65;99926.24;107638;1254;60296;-39
2023/08/10 08:31:08;;;;;;;3.50;2.20;;;;;;;24.77;39.00;99926.27;107785;1254;60415;-39
2023/08/10 08:33:36;;;;;;;6.50;2.50;;;;;;;24.76;39.53;99927.18;107605;1254;74312;-39
2023/08/10 08:36:05;;;;;;;3.90;2.40;;;;;;;24.77;39.32;99928.80;107659;1254;65855;-39
2023/08/10 08:38:32;;;;;;;5.00;2.40;;;;;;;24.82;39.36;99923.27;107661;1254;72723;-39
2023/08/10 08:41:05;;;;;;;5.40;2.10;;;;;;;24.89;39.74;99924.33;107611;1254;60374;-39
2023/08/10 08:43:33;;;;;;;5.40;2.50;;;;;;;24.98;39.77;99925.19;107601;1254;59725;-39
2023/08/10 08:46:02;;;;;;;9.20;2.50;;;;;;;25.07;38.79;99920.55;107597;1254;73061;-39
2023/08/10 08:48:30;;;;;;;3.40;2.10;;;;;;;25.15;38.30;99921.00;107628;1254;66615;-39
2023/08/10 08:50:57;;;;;;;3.10;2.30;;;;;;;25.27;37.97;99915.94;107657;1254;72657;-39
2023/08/10 08:53:25;;;;;;;3.00;1.90;;;;;;;25.41;36.63;99911.13;107558;1256;60314;-39
2023/08/10 08:55:53;;;;;;;2.90;2.10;;;;;;;25.53;35.44;99915.02;107603;1252;60300;-39
2023/08/10 08:58:21;;;;;;;3.00;2.10;;;;;;;25.62;35.53;99913.07;107714;1252;72610;-39
2023/08/10 09:00:53;;;;;;;3.90;2.60;;;;;;;25.72;35.45;99913.84;107653;1255;67563;-39
2023/08/10 09:03:22;;;;;;;3.30;2.30;;;;;;;25.88;36.16;99914.45;107676;1255;72712;-39
2023/08/10 09:05:50;;;;;;;4.40;2.20;;;;;;;26.12;35.57;99913.87;107731;1256;60389;-39
2023/08/10 09:08:18;;;;;;;3.40;2.10;;;;;;;26.32;35.31;99914.56;107643;1254;60501;-39
2023/08/10 09:10:46;;;;;;;3.70;2.40;;;;;;;26.49;34.57;99915.70;107667;1254;73622;-39
2023/08/10 09:13:21;;;;;;;3.70;2.50;;;;;;;26.59;35.19;99911.38;107679;1254;66496;-39
2023/08/10 09:16:08;;;;;;;4.20;2.70;;;;;;;26.63;34.86;99911.60;107603;1254;72636;-39
2023/08/10 09:18:38;;;;;;;4.20;2.60;;;;;;;26.67;34.88;99906.04;107660;1254;60398;-39
2023/08/10 09:21:26;;;;;;;7.20;2.30;;;;;;;26.76;34.82;99909.09;107672;1257;60309;-39
2023/08/10 09:23:53;;;;;;;5.60;2.50;;;;;;;26.93;34.37;99909.34;107464;1254;73824;-39
2023/08/10 09:26:22;;;;;;;5.50;2.50;;;;;;;27.06;34.13;99909.30;107568;1257;66608;-39
2023/08/10 09:28:50;;;;;;;6.70;2.50;;;;;;;27.18;34.80;99912.81;107574;1255;72700;-39
2023/08/10 09:31:26;;;;;;;4.40;2.50;;;;;;;27.26;33.93;99913.52;107569;1253;60241;-39
2023/08/10 09:33:55;;;;;;;5.00;2.40;;;;;;;27.34;33.73;99913.61;107628;1253;60307;-40
2023/08/10 09:36:25;;;;;;;6.60;2.50;;;;;;;27.40;33.59;99912.50;107655;1253;74285;-40
2023/08/10 09:38:53;;;;;;;3.20;2.10;;;;;;;27.47;33.14;99912.36;107647;1253;67865;-39
2023/08/10 09:41:23;;;;;;;4.90;2.30;;;;;;;27.50;33.39;99906.66;107599;1253;72683;-39
2023/08/10 09:43:51;;;;;;;3.10;2.40;;;;;;;27.57;32.71;99908.52;107629;1253;60385;-40
2023/08/10 09:46:18;;;;;;;4.90;2.40;;;;;;;27.71;33.87;99910.77;107563;1253;60637;-39
2023/08/10 09:48:50;;;;;;;4.20;2.50;;;;;;;27.85;33.15;99911.87;107577;1253;73933;-39
2023/08/10 09:51:17;;;;;;;3.30;2.00;;;;;;;27.92;31.61;99909.10;107560;1254;67627;-40
2023/08/10 09:53:45;;;;;;;3.40;1.90;;;;;;;27.94;30.80;99899.45;107625;1253;72728;-39
2023/08/10 09:56:13;;;;;;;27.10;3.70;;;;;;;27.98;30.93;99898.22;107583;1257;60383;-40
2023/08/10 09:58:41;;;;;;;10.30;2.50;;;;;;;28.04;30.19;99900.58;107563;1257;60308;-39
2023/08/10 10:01:09;;;;;;;2.90;2.00;;;;;;;28.11;29.95;99895.70;107636;1253;73865;-40
2023/08/10 10:03:43;;;;;;;3.20;1.90;;;;;;;28.20;29.99;99888.20;107660;1255;67902;-40
2023/08/10 10:06:12;;;;;;;3.20;2.00;;;;;;;28.29;30.18;99887.41;107618;1259;71101;-39
2023/08/10 10:08:41;;;;;;;16.30;2.80;;;;;;;28.41;29.52;99885.28;107507;1259;60284;-39
2023/08/10 10:11:11;;;;;;;3.00;2.20;;;;;;;28.55;29.97;99890.17;107651;1253;60434;-40
2023/08/10 10:13:39;;;;;;;2.90;2.00;;;;;;;28.72;29.16;99886.14;107690;1253;73835;-40
2023/08/10 10:16:07;;;;;;;3.50;2.40;;;;;;;28.89;29.00;99883.75;107499;1254;66673;-40
2023/08/10 10:18:35;;;;;;;4.30;2.30;;;;;;;29.08;28.25;99878.30;107587;1253;72721;-40
2023/08/10 10:21:04;;;;;;;3.70;2.00;;;;;;;29.29;27.92;99872.08;107537;1259;60499;-40
2023/08/10 10:23:32;;;;;;;2.20;1.70;;;;;;;29.44;27.55;99870.23;107370;1257;60445;-40
2023/08/10 10:26:06;;;;;;;3.50;2.10;;;;;;;29.52;27.66;99875.08;107697;1254;74363;-40
2023/08/10 10:28:34;;;;;;;3.40;1.90;;;;;;;29.52;28.04;99871.08;107615;1252;66386;-40
2023/08/10 10:31:12;;;;;;;2.10;1.80;;;;;;;29.52;28.08;99871.48;107568;1253;72676;-40
2023/08/10 10:33:55;;;;;;;4.10;1.90;;;;;;;29.56;28.02;99863.73;107533;1253;60479;-40
2023/08/10 10:36:23;;;;;;;16.70;11.20;;;;;;;29.62;27.90;99868.14;107560;1253;60429;-40
2023/08/10 10:39:02;;;;;;;7.20;4.70;;;;;;;29.62;28.09;99867.77;107630;1259;73955;-40
2023/08/10 10:41:34;;;;;;;12.10;6.70;;;;;;;29.52;27.56;99869.43;107567;1255;66353;-40
2023/08/10 10:44:03;;;;;;;3.60;2.40;;;;;;;29.39;27.68;99867.02;107528;1257;73196;-40
2023/08/10 10:46:31;;;;;;;3.40;2.20;;;;;;;29.31;27.42;99857.77;107644;1257;60264;-40
2023/08/10 10:49:14;;;;;;;3.50;2.00;;;;;;;29.30;27.73;99860.58;107547;1254;60294;-40
2023/08/10 10:51:47;;;;;;;4.30;2.10;;;;;;;29.34;27.68;99858.90;107574;1253;72603;-40
2023/08/10 10:54:15;;;;;;;2.40;1.90;;;;;;;29.32;27.65;99855.48;107615;1258;67579;-40
2023/08/10 10:56:43;;;;;;;2.20;2.00;;;;;;;29.29;27.61;99853.28;107582;1257;71356;-40
2023/08/10 10:59:10;;;;;;;3.10;2.00;;;;;;;29.27;28.15;99854.02;107527;1258;60432;-40
2023/08/10 11:01:38;;;;;;;1.80;1.60;;;;;;;29.30;28.06;99852.52;107565;1257;60307;-40
2023/08/10 11:04:07;;;;;;;3.80;2.00;;;;;;;29.40;27.81;99845.61;107541;1253;74304;-40
2023/08/10 11:06:37;;;;;;;2.20;2.00;;;;;;;29.50;27.46;99845.17;107542;1259;68342;-40
2023/08/10 11:09:07;;;;;;;2.90;1.90;;;;;;;29.56;27.92;99845.71;107569;1259;72047;-40
2023/08/10 11:11:35;;;;;;;3.50;2.00;;;;;;;29.55;28.31;99852.33;107575;1258;60407;-40
2023/08/10 11:14:03;;;;;;;2.90;2.20;;;;;;;29.44;28.13;99849.45;107400;1255;60360;-40
2023/08/10 11:16:42;;;;;;;10.20;2.20;;;;;;;29.31;27.96;99844.45;107564;1257;73848;-40
2023/08/10 11:19:10;;;;;;;3.10;2.10;;;;;;;29.15;28.01;99838.60;107528;1254;67614;-40
2023/08/10 11:21:40;;;;;;;3.10;1.90;;;;;;;29.02;28.90;99838.77;107587;1258;72719;-40
2023/08/10 11:24:08;;;;;;;2.30;2.10;;;;;;;28.92;28.82;99835.02;107563;1254;60300;-40
2023/08/10 11:26:36;;;;;;;2.00;1.70;;;;;;;28.84;29.24;99832.63;107573;1253;60053;-40
2023/08/10 11:29:03;;;;;;;3.80;2.20;;;;;;;28.82;28.69;99827.38;107402;1258;73911;-40
2023/08/10 11:31:41;;;;;;;5.50;2.20;;;;;;;28.79;28.80;99825.29;107487;1257;66884;-40
2023/08/10 11:34:20;;;;;;;2.90;1.90;;;;;;;28.81;29.11;99828.73;107558;1258;72674;-40